sensor_id;sensor_type;location;lat;lon;timestamp;P1;durP1;ratioP1;P2;durP2;ratioP2
44276;SDS011;29973;43.742;1.236;2022-10-31T00:02:00;20.50;;;8.10;;
44276;SDS011;29973;43.742;1.236;2022-10-31T00:04:25;17.85;;;8.85;;
44276;SDS011;29973;43.742;1.236;2022-10-31T00:06:51;16.58;;;7.72;;
44276;SDS011;29973;43.742;1.236;2022-10-31T00:09:17;19.98;;;8.63;;
44276;SDS011;29973;43.742;1.236;2022-10-31T00:11:42;14.02;;;7.32;;
44276;SDS011;29973;43.742;1.236;2022-10-31T00:14:08;15.65;;;8.40;;
44276;SDS011;29973;43.742;1.236;2022-10-31T00:16:34;21.17;;;7.78;;
44276;SDS011;29973;43.742;1.236;2022-10-31T00:19:00;18.58;;;7.57;;
44276;SDS011;29973;43.742;1.236;2022-10-31T00:21:28;19.48;;;7.68;;
44276;SDS011;29973;43.742;1.236;2022-10-31T00:23:55;17.88;;;8.10;;
44276;SDS011;29973;43.742;1.236;2022-10-31T00:26:22;16.73;;;8.07;;
44276;SDS011;29973;43.742;1.236;2022-10-31T00:28:48;24.20;;;7.88;;
44276;SDS011;29973;43.742;1.236;2022-10-31T00:31:14;26.95;;;8.30;;
44276;SDS011;29973;43.742;1.236;2022-10-31T00:33:40;25.88;;;9.05;;
44276;SDS011;29973;43.742;1.236;2022-10-31T00:36:07;19.58;;;7.43;;
44276;SDS011;29973;43.742;1.236;2022-10-31T00:38:35;17.27;;;7.47;;
44276;SDS011;29973;43.742;1.236;2022-10-31T00:41:01;20.17;;;8.07;;
44276;SDS011;29973;43.742;1.236;2022-10-31T00:43:27;17.55;;;7.25;;
44276;SDS011;29973;43.742;1.236;2022-10-31T00:45:52;17.65;;;8.07;;
44276;SDS011;29973;43.742;1.236;2022-10-31T00:48:18;19.13;;;7.97;;
44276;SDS011;29973;43.742;1.236;2022-10-31T00:50:44;19.33;;;7.40;;
44276;SDS011;29973;43.742;1.236;2022-10-31T00:53:10;15.75;;;7.75;;
44276;SDS011;29973;43.742;1.236;2022-10-31T00:55:35;17.27;;;7.60;;
44276;SDS011;29973;43.742;1.236;2022-10-31T00:58:01;18.67;;;7.93;;
44276;SDS011;29973;43.742;1.236;2022-10-31T01:00:27;19.83;;;7.78;;
44276;SDS011;29973;43.742;1.236;2022-10-31T01:02:52;22.05;;;8.32;;
44276;SDS011;29973;43.742;1.236;2022-10-31T01:05:18;19.23;;;7.72;;
44276;SDS011;29973;43.742;1.236;2022-10-31T01:07:44;16.45;;;8.20;;
44276;SDS011;29973;43.742;1.236;2022-10-31T01:10:10;17.80;;;7.72;;
44276;SDS011;29973;43.742;1.236;2022-10-31T01:12:36;28.65;;;9.38;;
44276;SDS011;29973;43.742;1.236;2022-10-31T01:15:03;19.98;;;7.55;;
44276;SDS011;29973;43.742;1.236;2022-10-31T01:17:30;26.08;;;7.90;;
44276;SDS011;29973;43.742;1.236;2022-10-31T01:19:55;22.17;;;8.30;;
44276;SDS011;29973;43.742;1.236;2022-10-31T01:22:21;22.42;;;9.68;;
44276;SDS011;29973;43.742;1.236;2022-10-31T01:24:47;26.35;;;8.77;;
44276;SDS011;29973;43.742;1.236;2022-10-31T01:27:12;24.27;;;8.90;;
44276;SDS011;29973;43.742;1.236;2022-10-31T01:29:38;24.08;;;8.23;;
44276;SDS011;29973;43.742;1.236;2022-10-31T01:32:04;18.45;;;9.23;;
44276;SDS011;29973;43.742;1.236;2022-10-31T01:34:29;26.63;;;8.88;;
44276;SDS011;29973;43.742;1.236;2022-10-31T01:36:55;21.92;;;9.65;;
44276;SDS011;29973;43.742;1.236;2022-10-31T01:39:21;20.13;;;9.15;;
44276;SDS011;29973;43.742;1.236;2022-10-31T01:41:47;27.30;;;9.52;;
44276;SDS011;29973;43.742;1.236;2022-10-31T01:46:46;25.05;;;9.43;;
44276;SDS011;29973;43.742;1.236;2022-10-31T01:52:08;25.27;;;10.07;;
44276;SDS011;29973;43.742;1.236;2022-10-31T01:54:43;22.35;;;9.57;;
44276;SDS011;29973;43.742;1.236;2022-10-31T01:57:15;20.55;;;9.88;;
44276;SDS011;29973;43.742;1.236;2022-10-31T01:59:46;22.90;;;9.88;;
44276;SDS011;29973;43.742;1.236;2022-10-31T02:02:14;22.55;;;9.77;;
44276;SDS011;29973;43.742;1.236;2022-10-31T02:04:41;20.90;;;8.98;;
44276;SDS011;29973;43.742;1.236;2022-10-31T02:07:10;26.85;;;9.60;;
44276;SDS011;29973;43.742;1.236;2022-10-31T02:09:46;20.30;;;9.20;;
44276;SDS011;29973;43.742;1.236;2022-10-31T02:12:12;19.45;;;9.57;;
44276;SDS011;29973;43.742;1.236;2022-10-31T02:14:39;23.55;;;9.65;;
44276;SDS011;29973;43.742;1.236;2022-10-31T02:17:05;23.98;;;9.85;;
44276;SDS011;29973;43.742;1.236;2022-10-31T02:22:13;19.85;;;10.30;;
44276;SDS011;29973;43.742;1.236;2022-10-31T02:33:09;18.60;;;9.70;;
44276;SDS011;29973;43.742;1.236;2022-10-31T02:49:16;24.33;;;11.88;;
44276;SDS011;29973;43.742;1.236;2022-10-31T02:51:49;26.27;;;11.43;;
44276;SDS011;29973;43.742;1.236;2022-10-31T02:54:22;32.40;;;12.55;;
44276;SDS011;29973;43.742;1.236;2022-10-31T02:56:50;34.20;;;11.02;;
44276;SDS011;29973;43.742;1.236;2022-10-31T02:59:20;29.70;;;11.98;;
44276;SDS011;29973;43.742;1.236;2022-10-31T03:15:34;33.58;;;13.07;;
44276;SDS011;29973;43.742;1.236;2022-10-31T03:18:13;32.85;;;12.77;;
44276;SDS011;29973;43.742;1.236;2022-10-31T03:20:48;39.17;;;13.25;;
44276;SDS011;29973;43.742;1.236;2022-10-31T03:23:21;26.02;;;12.73;;
44276;SDS011;29973;43.742;1.236;2022-10-31T03:25:50;33.60;;;13.82;;
44276;SDS011;29973;43.742;1.236;2022-10-31T03:28:18;23.85;;;12.23;;
44276;SDS011;29973;43.742;1.236;2022-10-31T03:30:51;28.25;;;13.25;;
44276;SDS011;29973;43.742;1.236;2022-10-31T03:33:20;27.45;;;13.50;;
44276;SDS011;29973;43.742;1.236;2022-10-31T03:35:51;33.42;;;14.57;;
44276;SDS011;29973;43.742;1.236;2022-10-31T03:38:20;31.65;;;14.32;;
44276;SDS011;29973;43.742;1.236;2022-10-31T03:40:47;26.40;;;15.00;;
44276;SDS011;29973;43.742;1.236;2022-10-31T03:43:16;38.15;;;15.82;;
44276;SDS011;29973;43.742;1.236;2022-10-31T03:45:45;41.88;;;16.73;;
44276;SDS011;29973;43.742;1.236;2022-10-31T03:48:14;35.05;;;14.82;;
44276;SDS011;29973;43.742;1.236;2022-10-31T03:50:47;33.20;;;15.65;;
44276;SDS011;29973;43.742;1.236;2022-10-31T03:53:45;34.65;;;14.40;;
44276;SDS011;29973;43.742;1.236;2022-10-31T03:56:29;27.52;;;14.82;;
44276;SDS011;29973;43.742;1.236;2022-10-31T03:59:50;35.60;;;14.02;;
44276;SDS011;29973;43.742;1.236;2022-10-31T04:01:52;41.33;;;15.02;;
44276;SDS011;29973;43.742;1.236;2022-10-31T04:04:22;29.42;;;14.13;;
44276;SDS011;29973;43.742;1.236;2022-10-31T04:06:48;33.85;;;15.07;;
44276;SDS011;29973;43.742;1.236;2022-10-31T04:09:15;41.53;;;15.13;;
44276;SDS011;29973;43.742;1.236;2022-10-31T04:11:47;31.20;;;15.10;;
44276;SDS011;29973;43.742;1.236;2022-10-31T04:14:16;43.28;;;15.82;;
44276;SDS011;29973;43.742;1.236;2022-10-31T04:16:42;36.47;;;15.13;;
44276;SDS011;29973;43.742;1.236;2022-10-31T04:19:12;30.02;;;14.52;;
44276;SDS011;29973;43.742;1.236;2022-10-31T04:21:39;31.23;;;15.70;;
44276;SDS011;29973;43.742;1.236;2022-10-31T04:24:05;38.33;;;14.73;;
44276;SDS011;29973;43.742;1.236;2022-10-31T04:26:31;39.65;;;15.25;;
44276;SDS011;29973;43.742;1.236;2022-10-31T04:28:56;38.25;;;15.60;;
44276;SDS011;29973;43.742;1.236;2022-10-31T04:31:22;37.78;;;15.50;;
44276;SDS011;29973;43.742;1.236;2022-10-31T04:33:47;42.03;;;16.40;;
44276;SDS011;29973;43.742;1.236;2022-10-31T04:36:13;32.10;;;16.40;;
44276;SDS011;29973;43.742;1.236;2022-10-31T04:38:39;39.47;;;15.55;;
44276;SDS011;29973;43.742;1.236;2022-10-31T04:41:04;37.30;;;16.20;;
44276;SDS011;29973;43.742;1.236;2022-10-31T04:43:30;34.47;;;15.48;;
44276;SDS011;29973;43.742;1.236;2022-10-31T04:45:56;33.00;;;14.27;;
44276;SDS011;29973;43.742;1.236;2022-10-31T04:48:21;36.45;;;14.82;;
44276;SDS011;29973;43.742;1.236;2022-10-31T04:50:47;44.88;;;17.08;;
44276;SDS011;29973;43.742;1.236;2022-10-31T04:53:13;43.70;;;16.33;;
44276;SDS011;29973;43.742;1.236;2022-10-31T04:55:38;41.22;;;16.50;;
44276;SDS011;29973;43.742;1.236;2022-10-31T04:58:04;33.17;;;15.02;;
44276;SDS011;29973;43.742;1.236;2022-10-31T05:00:30;34.95;;;15.35;;
44276;SDS011;29973;43.742;1.236;2022-10-31T05:02:56;44.03;;;16.25;;
44276;SDS011;29973;43.742;1.236;2022-10-31T05:05:23;34.55;;;15.52;;
44276;SDS011;29973;43.742;1.236;2022-10-31T05:07:51;35.83;;;15.35;;
44276;SDS011;29973;43.742;1.236;2022-10-31T05:10:18;37.25;;;16.63;;
44276;SDS011;29973;43.742;1.236;2022-10-31T05:12:53;34.35;;;15.55;;
44276;SDS011;29973;43.742;1.236;2022-10-31T05:15:20;36.80;;;15.02;;
44276;SDS011;29973;43.742;1.236;2022-10-31T05:17:47;37.13;;;14.95;;
44276;SDS011;29973;43.742;1.236;2022-10-31T05:20:14;36.58;;;16.48;;
44276;SDS011;29973;43.742;1.236;2022-10-31T05:22:48;38.83;;;15.80;;
44276;SDS011;29973;43.742;1.236;2022-10-31T05:25:15;34.85;;;15.45;;
44276;SDS011;29973;43.742;1.236;2022-10-31T05:27:44;35.83;;;16.52;;
44276;SDS011;29973;43.742;1.236;2022-10-31T05:30:12;40.20;;;16.23;;
44276;SDS011;29973;43.742;1.236;2022-10-31T05:32:40;40.22;;;16.10;;
44276;SDS011;29973;43.742;1.236;2022-10-31T05:35:08;29.50;;;15.75;;
44276;SDS011;29973;43.742;1.236;2022-10-31T05:37:35;37.13;;;16.20;;
44276;SDS011;29973;43.742;1.236;2022-10-31T05:40:02;30.17;;;15.38;;
44276;SDS011;29973;43.742;1.236;2022-10-31T05:42:29;37.17;;;16.15;;
44276;SDS011;29973;43.742;1.236;2022-10-31T05:44:54;31.63;;;15.00;;
44276;SDS011;29973;43.742;1.236;2022-10-31T05:47:20;35.38;;;16.15;;
44276;SDS011;29973;43.742;1.236;2022-10-31T05:49:46;34.78;;;15.07;;
44276;SDS011;29973;43.742;1.236;2022-10-31T05:52:11;34.28;;;15.35;;
44276;SDS011;29973;43.742;1.236;2022-10-31T05:54:37;37.35;;;15.48;;
44276;SDS011;29973;43.742;1.236;2022-10-31T05:57:03;33.20;;;16.42;;
44276;SDS011;29973;43.742;1.236;2022-10-31T05:59:28;31.27;;;15.07;;
44276;SDS011;29973;43.742;1.236;2022-10-31T06:01:54;42.05;;;16.50;;
44276;SDS011;29973;43.742;1.236;2022-10-31T06:04:20;38.00;;;16.40;;
44276;SDS011;29973;43.742;1.236;2022-10-31T06:06:45;37.45;;;16.35;;
44276;SDS011;29973;43.742;1.236;2022-10-31T06:09:11;37.72;;;15.55;;
44276;SDS011;29973;43.742;1.236;2022-10-31T06:11:37;33.42;;;15.38;;
44276;SDS011;29973;43.742;1.236;2022-10-31T06:14:02;39.85;;;15.60;;
44276;SDS011;29973;43.742;1.236;2022-10-31T06:16:29;29.50;;;16.42;;
44276;SDS011;29973;43.742;1.236;2022-10-31T06:18:54;30.63;;;14.32;;
44276;SDS011;29973;43.742;1.236;2022-10-31T06:21:20;33.05;;;14.23;;
44276;SDS011;29973;43.742;1.236;2022-10-31T06:23:46;33.42;;;15.23;;
44276;SDS011;29973;43.742;1.236;2022-10-31T06:26:12;34.72;;;14.88;;
44276;SDS011;29973;43.742;1.236;2022-10-31T06:28:37;31.45;;;14.55;;
44276;SDS011;29973;43.742;1.236;2022-10-31T06:31:03;36.50;;;14.38;;
44276;SDS011;29973;43.742;1.236;2022-10-31T06:33:29;26.58;;;14.25;;
44276;SDS011;29973;43.742;1.236;2022-10-31T06:35:54;34.80;;;14.30;;
44276;SDS011;29973;43.742;1.236;2022-10-31T06:38:20;33.58;;;15.60;;
44276;SDS011;29973;43.742;1.236;2022-10-31T06:40:46;32.08;;;13.90;;
44276;SDS011;29973;43.742;1.236;2022-10-31T06:43:11;23.25;;;13.38;;
44276;SDS011;29973;43.742;1.236;2022-10-31T06:45:39;26.67;;;13.70;;
44276;SDS011;29973;43.742;1.236;2022-10-31T06:48:05;33.80;;;14.20;;
44276;SDS011;29973;43.742;1.236;2022-10-31T06:50:31;28.83;;;14.05;;
44276;SDS011;29973;43.742;1.236;2022-10-31T06:52:57;28.42;;;14.32;;
44276;SDS011;29973;43.742;1.236;2022-10-31T06:55:23;27.90;;;13.32;;
44276;SDS011;29973;43.742;1.236;2022-10-31T06:58:02;25.65;;;12.80;;
44276;SDS011;29973;43.742;1.236;2022-10-31T07:00:31;23.02;;;12.90;;
44276;SDS011;29973;43.742;1.236;2022-10-31T07:03:01;21.73;;;11.98;;
44276;SDS011;29973;43.742;1.236;2022-10-31T07:05:29;24.67;;;11.43;;
44276;SDS011;29973;43.742;1.236;2022-10-31T07:07:59;24.45;;;11.57;;
44276;SDS011;29973;43.742;1.236;2022-10-31T07:10:30;28.58;;;10.95;;
44276;SDS011;29973;43.742;1.236;2022-10-31T07:12:59;24.23;;;11.18;;
44276;SDS011;29973;43.742;1.236;2022-10-31T07:15:28;26.85;;;11.32;;
44276;SDS011;29973;43.742;1.236;2022-10-31T07:18:01;23.88;;;10.98;;
44276;SDS011;29973;43.742;1.236;2022-10-31T07:20:28;22.05;;;11.80;;
44276;SDS011;29973;43.742;1.236;2022-10-31T07:22:54;22.67;;;11.13;;
44276;SDS011;29973;43.742;1.236;2022-10-31T07:25:20;19.50;;;11.27;;
44276;SDS011;29973;43.742;1.236;2022-10-31T07:27:46;31.67;;;12.60;;
44276;SDS011;29973;43.742;1.236;2022-10-31T07:30:12;26.10;;;11.63;;
44276;SDS011;29973;43.742;1.236;2022-10-31T07:32:39;30.38;;;12.32;;
44276;SDS011;29973;43.742;1.236;2022-10-31T07:35:06;28.95;;;12.52;;
44276;SDS011;29973;43.742;1.236;2022-10-31T07:37:33;31.55;;;12.95;;
44276;SDS011;29973;43.742;1.236;2022-10-31T07:39:59;24.98;;;12.10;;
44276;SDS011;29973;43.742;1.236;2022-10-31T07:42:24;26.00;;;12.45;;
44276;SDS011;29973;43.742;1.236;2022-10-31T07:44:50;18.02;;;11.73;;
44276;SDS011;29973;43.742;1.236;2022-10-31T07:47:16;16.27;;;9.98;;
44276;SDS011;29973;43.742;1.236;2022-10-31T07:49:42;23.75;;;10.60;;
44276;SDS011;29973;43.742;1.236;2022-10-31T07:52:07;26.58;;;11.48;;
44276;SDS011;29973;43.742;1.236;2022-10-31T07:54:34;16.70;;;10.73;;
44276;SDS011;29973;43.742;1.236;2022-10-31T07:57:00;18.48;;;10.40;;
44276;SDS011;29973;43.742;1.236;2022-10-31T07:59:25;20.83;;;9.77;;
44276;SDS011;29973;43.742;1.236;2022-10-31T08:01:52;21.02;;;10.50;;
44276;SDS011;29973;43.742;1.236;2022-10-31T08:04:18;25.50;;;10.48;;
44276;SDS011;29973;43.742;1.236;2022-10-31T08:06:43;19.52;;;10.50;;
44276;SDS011;29973;43.742;1.236;2022-10-31T08:09:09;20.75;;;10.48;;
44276;SDS011;29973;43.742;1.236;2022-10-31T08:11:35;20.98;;;10.10;;
44276;SDS011;29973;43.742;1.236;2022-10-31T08:14:00;18.48;;;10.35;;
44276;SDS011;29973;43.742;1.236;2022-10-31T08:16:29;36.17;;;10.90;;
44276;SDS011;29973;43.742;1.236;2022-10-31T08:18:54;23.98;;;9.75;;
44276;SDS011;29973;43.742;1.236;2022-10-31T08:21:20;27.13;;;10.68;;
44276;SDS011;29973;43.742;1.236;2022-10-31T08:23:46;20.88;;;10.38;;
44276;SDS011;29973;43.742;1.236;2022-10-31T08:26:12;31.67;;;11.75;;
44276;SDS011;29973;43.742;1.236;2022-10-31T08:28:38;22.42;;;11.25;;
44276;SDS011;29973;43.742;1.236;2022-10-31T08:31:03;28.27;;;12.68;;
44276;SDS011;29973;43.742;1.236;2022-10-31T08:33:30;29.35;;;13.25;;
44276;SDS011;29973;43.742;1.236;2022-10-31T08:35:57;31.20;;;12.77;;
44276;SDS011;29973;43.742;1.236;2022-10-31T08:38:23;29.20;;;13.13;;
44276;SDS011;29973;43.742;1.236;2022-10-31T08:40:49;31.27;;;14.35;;
44276;SDS011;29973;43.742;1.236;2022-10-31T08:43:15;33.95;;;15.63;;
44276;SDS011;29973;43.742;1.236;2022-10-31T08:45:42;35.00;;;20.58;;
44276;SDS011;29973;43.742;1.236;2022-10-31T08:48:10;39.35;;;19.23;;
44276;SDS011;29973;43.742;1.236;2022-10-31T08:50:37;29.92;;;15.32;;
44276;SDS011;29973;43.742;1.236;2022-10-31T08:53:04;38.22;;;16.13;;
44276;SDS011;29973;43.742;1.236;2022-10-31T08:55:41;37.00;;;13.45;;
44276;SDS011;29973;43.742;1.236;2022-10-31T08:58:09;33.60;;;12.60;;
44276;SDS011;29973;43.742;1.236;2022-10-31T09:00:40;26.45;;;12.05;;
44276;SDS011;29973;43.742;1.236;2022-10-31T09:03:09;28.55;;;10.98;;
44276;SDS011;29973;43.742;1.236;2022-10-31T09:05:39;30.60;;;10.27;;
44276;SDS011;29973;43.742;1.236;2022-10-31T09:08:05;25.90;;;9.93;;
44276;SDS011;29973;43.742;1.236;2022-10-31T09:10:33;25.17;;;9.02;;
44276;SDS011;29973;43.742;1.236;2022-10-31T09:13:04;24.50;;;9.00;;
44276;SDS011;29973;43.742;1.236;2022-10-31T09:15:32;24.83;;;8.40;;
44276;SDS011;29973;43.742;1.236;2022-10-31T09:18:03;21.88;;;7.32;;
44276;SDS011;29973;43.742;1.236;2022-10-31T09:20:30;31.33;;;8.52;;
44276;SDS011;29973;43.742;1.236;2022-10-31T09:23:08;25.15;;;8.30;;
44276;SDS011;29973;43.742;1.236;2022-10-31T09:25:35;19.40;;;7.80;;
44276;SDS011;29973;43.742;1.236;2022-10-31T09:28:01;15.05;;;6.80;;
44276;SDS011;29973;43.742;1.236;2022-10-31T09:30:29;19.20;;;7.05;;
44276;SDS011;29973;43.742;1.236;2022-10-31T09:32:57;22.10;;;7.28;;
44276;SDS011;29973;43.742;1.236;2022-10-31T09:35:24;29.65;;;7.18;;
44276;SDS011;29973;43.742;1.236;2022-10-31T09:37:53;22.90;;;6.45;;
44276;SDS011;29973;43.742;1.236;2022-10-31T09:40:20;21.77;;;6.03;;
44276;SDS011;29973;43.742;1.236;2022-10-31T09:45:47;19.52;;;6.50;;
44276;SDS011;29973;43.742;1.236;2022-10-31T09:50:55;26.25;;;6.72;;
44276;SDS011;29973;43.742;1.236;2022-10-31T09:53:25;14.95;;;6.38;;
44276;SDS011;29973;43.742;1.236;2022-10-31T09:56:13;17.00;;;5.28;;
44276;SDS011;29973;43.742;1.236;2022-10-31T09:58:43;18.40;;;5.68;;
44276;SDS011;29973;43.742;1.236;2022-10-31T10:01:17;19.65;;;5.55;;
44276;SDS011;29973;43.742;1.236;2022-10-31T10:06:52;23.27;;;5.60;;
44276;SDS011;29973;43.742;1.236;2022-10-31T10:09:19;18.50;;;5.53;;
44276;SDS011;29973;43.742;1.236;2022-10-31T10:11:55;17.95;;;5.07;;
44276;SDS011;29973;43.742;1.236;2022-10-31T10:20:18;15.32;;;4.90;;
44276;SDS011;29973;43.742;1.236;2022-10-31T10:26:07;17.60;;;5.32;;
44276;SDS011;29973;43.742;1.236;2022-10-31T10:28:43;12.13;;;5.22;;
44276;SDS011;29973;43.742;1.236;2022-10-31T10:31:16;24.83;;;5.90;;
44276;SDS011;29973;43.742;1.236;2022-10-31T10:36:47;15.35;;;4.88;;
44276;SDS011;29973;43.742;1.236;2022-10-31T10:39:22;17.55;;;4.88;;
44276;SDS011;29973;43.742;1.236;2022-10-31T10:41:53;18.85;;;5.10;;
44276;SDS011;29973;43.742;1.236;2022-10-31T10:44:40;18.88;;;5.00;;
44276;SDS011;29973;43.742;1.236;2022-10-31T10:47:29;22.88;;;5.25;;
44276;SDS011;29973;43.742;1.236;2022-10-31T10:50:27;19.33;;;5.70;;
44276;SDS011;29973;43.742;1.236;2022-10-31T10:53:05;18.90;;;5.60;;
44276;SDS011;29973;43.742;1.236;2022-10-31T10:58:44;19.45;;;5.15;;
44276;SDS011;29973;43.742;1.236;2022-10-31T11:01:14;21.63;;;5.68;;
44276;SDS011;29973;43.742;1.236;2022-10-31T11:03:40;21.55;;;5.10;;
44276;SDS011;29973;43.742;1.236;2022-10-31T11:06:17;14.15;;;5.50;;
44276;SDS011;29973;43.742;1.236;2022-10-31T11:08:50;17.73;;;4.68;;
44276;SDS011;29973;43.742;1.236;2022-10-31T11:13:43;19.42;;;4.50;;
44276;SDS011;29973;43.742;1.236;2022-10-31T11:16:27;15.70;;;4.80;;
44276;SDS011;29973;43.742;1.236;2022-10-31T11:19:05;16.80;;;5.05;;
44276;SDS011;29973;43.742;1.236;2022-10-31T11:21:33;13.20;;;4.43;;
44276;SDS011;29973;43.742;1.236;2022-10-31T11:26:34;21.50;;;5.32;;
44276;SDS011;29973;43.742;1.236;2022-10-31T11:29:02;15.57;;;4.65;;
44276;SDS011;29973;43.742;1.236;2022-10-31T11:31:30;15.40;;;5.50;;
44276;SDS011;29973;43.742;1.236;2022-10-31T11:34:00;18.70;;;5.60;;
44276;SDS011;29973;43.742;1.236;2022-10-31T11:36:35;22.80;;;5.15;;
44276;SDS011;29973;43.742;1.236;2022-10-31T11:39:04;23.60;;;6.15;;
44276;SDS011;29973;43.742;1.236;2022-10-31T11:41:38;19.80;;;6.63;;
44276;SDS011;29973;43.742;1.236;2022-10-31T11:46:45;20.30;;;4.45;;
44276;SDS011;29973;43.742;1.236;2022-10-31T11:49:28;15.18;;;4.55;;
44276;SDS011;29973;43.742;1.236;2022-10-31T11:52:01;13.88;;;4.18;;
44276;SDS011;29973;43.742;1.236;2022-10-31T11:57:43;18.95;;;5.63;;
44276;SDS011;29973;43.742;1.236;2022-10-31T12:00:20;21.02;;;4.15;;
44276;SDS011;29973;43.742;1.236;2022-10-31T12:08:29;22.92;;;4.95;;
44276;SDS011;29973;43.742;1.236;2022-10-31T12:13:39;17.10;;;6.18;;
44276;SDS011;29973;43.742;1.236;2022-10-31T12:35:23;16.70;;;4.65;;
44276;SDS011;29973;43.742;1.236;2022-10-31T12:40:50;16.08;;;5.03;;
44276;SDS011;29973;43.742;1.236;2022-10-31T12:45:53;17.20;;;4.55;;
44276;SDS011;29973;43.742;1.236;2022-10-31T12:49:06;18.48;;;4.32;;
44276;SDS011;29973;43.742;1.236;2022-10-31T12:57:13;24.27;;;5.40;;
44276;SDS011;29973;43.742;1.236;2022-10-31T13:02:27;19.40;;;4.55;;
44276;SDS011;29973;43.742;1.236;2022-10-31T13:04:58;27.75;;;5.10;;
44276;SDS011;29973;43.742;1.236;2022-10-31T13:07:31;21.85;;;5.70;;
44276;SDS011;29973;43.742;1.236;2022-10-31T13:12:40;17.70;;;5.05;;
44276;SDS011;29973;43.742;1.236;2022-10-31T13:15:12;13.93;;;5.07;;
44276;SDS011;29973;43.742;1.236;2022-10-31T13:17:47;16.98;;;5.65;;
44276;SDS011;29973;43.742;1.236;2022-10-31T13:25:30;24.17;;;4.60;;
44276;SDS011;29973;43.742;1.236;2022-10-31T13:28:48;19.60;;;5.85;;
44276;SDS011;29973;43.742;1.236;2022-10-31T13:30:49;18.92;;;5.40;;
44276;SDS011;29973;43.742;1.236;2022-10-31T13:33:28;17.42;;;4.65;;
44276;SDS011;29973;43.742;1.236;2022-10-31T13:36:06;33.45;;;4.82;;
44276;SDS011;29973;43.742;1.236;2022-10-31T13:38:52;21.95;;;4.72;;
44276;SDS011;29973;43.742;1.236;2022-10-31T13:44:26;23.60;;;5.47;;
44276;SDS011;29973;43.742;1.236;2022-10-31T13:46:54;25.98;;;4.68;;
44276;SDS011;29973;43.742;1.236;2022-10-31T13:49:23;17.58;;;5.15;;
44276;SDS011;29973;43.742;1.236;2022-10-31T13:51:49;26.05;;;4.93;;
44276;SDS011;29973;43.742;1.236;2022-10-31T13:56:57;21.75;;;5.07;;
44276;SDS011;29973;43.742;1.236;2022-10-31T13:59:23;23.33;;;5.70;;
44276;SDS011;29973;43.742;1.236;2022-10-31T14:02:00;20.10;;;5.32;;
44276;SDS011;29973;43.742;1.236;2022-10-31T14:04:38;27.92;;;5.30;;
44276;SDS011;29973;43.742;1.236;2022-10-31T14:07:10;20.38;;;5.28;;
44276;SDS011;29973;43.742;1.236;2022-10-31T14:09:39;18.27;;;5.38;;
44276;SDS011;29973;43.742;1.236;2022-10-31T14:15:03;14.38;;;5.72;;
44276;SDS011;29973;43.742;1.236;2022-10-31T14:18:00;19.15;;;5.68;;
44276;SDS011;29973;43.742;1.236;2022-10-31T14:20:41;15.30;;;5.43;;
44276;SDS011;29973;43.742;1.236;2022-10-31T14:28:46;18.05;;;5.47;;
44276;SDS011;29973;43.742;1.236;2022-10-31T14:34:04;22.10;;;5.35;;
44276;SDS011;29973;43.742;1.236;2022-10-31T14:37:04;18.42;;;5.40;;
44276;SDS011;29973;43.742;1.236;2022-10-31T14:39:52;17.40;;;5.82;;
44276;SDS011;29973;43.742;1.236;2022-10-31T14:50:50;21.17;;;6.63;;
44276;SDS011;29973;43.742;1.236;2022-10-31T14:53:28;29.85;;;10.90;;
44276;SDS011;29973;43.742;1.236;2022-10-31T14:56:09;19.20;;;6.53;;
44276;SDS011;29973;43.742;1.236;2022-10-31T15:01:07;16.17;;;5.97;;
44276;SDS011;29973;43.742;1.236;2022-10-31T15:03:53;18.95;;;6.07;;
44276;SDS011;29973;43.742;1.236;2022-10-31T15:06:25;20.70;;;6.60;;
44276;SDS011;29973;43.742;1.236;2022-10-31T15:08:55;25.92;;;7.35;;
44276;SDS011;29973;43.742;1.236;2022-10-31T15:11:22;17.08;;;6.68;;
44276;SDS011;29973;43.742;1.236;2022-10-31T15:19:04;22.10;;;5.53;;
44276;SDS011;29973;43.742;1.236;2022-10-31T15:21:32;22.90;;;8.13;;
44276;SDS011;29973;43.742;1.236;2022-10-31T15:24:12;24.20;;;6.30;;
44276;SDS011;29973;43.742;1.236;2022-10-31T15:26:44;25.52;;;5.90;;
44276;SDS011;29973;43.742;1.236;2022-10-31T15:29:15;18.13;;;5.68;;
44276;SDS011;29973;43.742;1.236;2022-10-31T15:31:52;30.27;;;9.80;;
44276;SDS011;29973;43.742;1.236;2022-10-31T15:37:07;22.95;;;6.32;;
44276;SDS011;29973;43.742;1.236;2022-10-31T15:39:36;25.15;;;9.23;;
44276;SDS011;29973;43.742;1.236;2022-10-31T15:42:02;18.88;;;6.72;;
44276;SDS011;29973;43.742;1.236;2022-10-31T15:44:29;17.30;;;5.85;;
44276;SDS011;29973;43.742;1.236;2022-10-31T15:47:13;23.50;;;5.53;;
44276;SDS011;29973;43.742;1.236;2022-10-31T15:49:42;19.42;;;6.32;;
44276;SDS011;29973;43.742;1.236;2022-10-31T15:54:56;27.20;;;6.38;;
44276;SDS011;29973;43.742;1.236;2022-10-31T15:57:25;19.83;;;5.90;;
44276;SDS011;29973;43.742;1.236;2022-10-31T15:59:54;28.10;;;6.93;;
44276;SDS011;29973;43.742;1.236;2022-10-31T16:02:21;22.00;;;6.75;;
44276;SDS011;29973;43.742;1.236;2022-10-31T16:04:52;20.08;;;5.93;;
44276;SDS011;29973;43.742;1.236;2022-10-31T16:07:26;15.90;;;6.15;;
44276;SDS011;29973;43.742;1.236;2022-10-31T16:12:23;17.13;;;5.45;;
44276;SDS011;29973;43.742;1.236;2022-10-31T16:14:51;28.20;;;6.35;;
44276;SDS011;29973;43.742;1.236;2022-10-31T16:17:20;21.73;;;6.60;;
44276;SDS011;29973;43.742;1.236;2022-10-31T16:22:26;19.67;;;6.45;;
44276;SDS011;29973;43.742;1.236;2022-10-31T16:25:04;22.95;;;6.20;;
44276;SDS011;29973;43.742;1.236;2022-10-31T16:27:39;22.83;;;6.50;;
44276;SDS011;29973;43.742;1.236;2022-10-31T16:32:57;21.58;;;7.45;;
44276;SDS011;29973;43.742;1.236;2022-10-31T16:35:26;23.30;;;6.90;;
44276;SDS011;29973;43.742;1.236;2022-10-31T16:38:02;19.23;;;6.63;;
44276;SDS011;29973;43.742;1.236;2022-10-31T16:40:29;20.50;;;6.50;;
44276;SDS011;29973;43.742;1.236;2022-10-31T16:42:59;18.17;;;7.53;;
44276;SDS011;29973;43.742;1.236;2022-10-31T16:45:26;28.20;;;8.43;;
44276;SDS011;29973;43.742;1.236;2022-10-31T16:47:54;19.35;;;7.68;;
44276;SDS011;29973;43.742;1.236;2022-10-31T16:50:31;23.92;;;8.25;;
44276;SDS011;29973;43.742;1.236;2022-10-31T16:52:57;19.98;;;7.32;;
44276;SDS011;29973;43.742;1.236;2022-10-31T16:55:23;24.35;;;9.40;;
44276;SDS011;29973;43.742;1.236;2022-10-31T16:57:52;25.88;;;8.50;;
44276;SDS011;29973;43.742;1.236;2022-10-31T17:02:47;22.00;;;8.95;;
44276;SDS011;29973;43.742;1.236;2022-10-31T17:05:16;28.83;;;10.63;;
44276;SDS011;29973;43.742;1.236;2022-10-31T17:07:42;29.30;;;10.13;;
44276;SDS011;29973;43.742;1.236;2022-10-31T17:10:09;29.42;;;10.88;;
44276;SDS011;29973;43.742;1.236;2022-10-31T17:12:36;30.08;;;8.77;;
44276;SDS011;29973;43.742;1.236;2022-10-31T17:15:04;35.45;;;9.70;;
44276;SDS011;29973;43.742;1.236;2022-10-31T17:17:31;30.60;;;9.10;;
44276;SDS011;29973;43.742;1.236;2022-10-31T17:19:57;30.88;;;9.85;;
44276;SDS011;29973;43.742;1.236;2022-10-31T17:22:23;28.90;;;9.32;;
44276;SDS011;29973;43.742;1.236;2022-10-31T17:24:48;31.92;;;10.23;;
44276;SDS011;29973;43.742;1.236;2022-10-31T17:27:14;39.05;;;9.60;;
44276;SDS011;29973;43.742;1.236;2022-10-31T17:29:40;34.75;;;10.45;;
44276;SDS011;29973;43.742;1.236;2022-10-31T17:32:05;41.47;;;10.15;;
44276;SDS011;29973;43.742;1.236;2022-10-31T17:34:31;28.15;;;9.60;;
44276;SDS011;29973;43.742;1.236;2022-10-31T17:36:57;33.13;;;8.98;;
44276;SDS011;29973;43.742;1.236;2022-10-31T17:39:22;35.33;;;11.15;;